createdAt,value
2019-04-04T00:00:35.690Z,21.00
2019-04-04T00:02:43.459Z,21.90
2019-04-04T00:04:52.486Z,19.98
2019-04-04T00:07:01.908Z,21.05
2019-04-04T00:09:11.017Z,21.20
2019-04-04T00:11:18.724Z,20.57
2019-04-04T00:13:26.420Z,21.25
2019-04-04T00:15:34.092Z,22.67
2019-04-04T00:17:42.631Z,21.90
2019-04-04T00:19:51.520Z,22.35
2019-04-04T00:22:00.263Z,21.02
2019-04-04T00:24:09.144Z,21.12
2019-04-04T00:26:17.551Z,22.67
2019-04-04T00:28:25.319Z,22.70
2019-04-04T00:30:34.209Z,22.55
2019-04-04T00:32:42.888Z,22.75
2019-04-04T00:34:50.605Z,23.32
2019-04-04T00:36:58.345Z,22.58
2019-04-04T00:39:10.025Z,20.70
2019-04-04T00:41:17.703Z,21.42
2019-04-04T00:43:25.443Z,21.55
2019-04-04T00:45:34.336Z,21.73
2019-04-04T00:47:42.078Z,21.95
2019-04-04T00:49:49.743Z,21.12
2019-04-04T00:51:57.584Z,22.15
2019-04-04T00:54:05.494Z,21.48
2019-04-04T00:56:13.263Z,21.82
2019-04-04T00:58:21.465Z,21.02
2019-04-04T01:00:29.209Z,20.32
2019-04-04T01:02:36.881Z,21.00
2019-04-04T01:04:44.587Z,21.42
2019-04-04T01:06:52.761Z,21.90
2019-04-04T01:09:00.767Z,21.35
2019-04-04T01:11:10.165Z,21.07
2019-04-04T01:13:17.838Z,20.60
2019-04-04T01:15:26.649Z,22.35
2019-04-04T01:17:35.050Z,21.30
2019-04-04T01:19:43.359Z,21.05
2019-04-04T01:21:53.179Z,21.02
2019-04-04T01:24:00.495Z,20.20
2019-04-04T01:26:08.455Z,20.85
2019-04-04T01:28:16.101Z,23.10
2019-04-04T01:30:24.863Z,21.27
2019-04-04T01:32:32.582Z,21.25
2019-04-04T01:34:40.558Z,20.85
2019-04-04T01:36:48.326Z,21.62
2019-04-04T01:39:00.157Z,19.60
2019-04-04T01:41:08.887Z,21.50
2019-04-04T01:43:16.583Z,20.85
2019-04-04T01:45:25.243Z,21.93
2019-04-04T01:47:32.917Z,21.60
2019-04-04T01:49:40.637Z,20.97
2019-04-04T01:51:48.305Z,21.42
2019-04-04T01:53:55.978Z,21.45
2019-04-04T01:56:05.852Z,21.35
2019-04-04T01:58:13.204Z,20.65
2019-04-04T02:00:21.112Z,21.17
2019-04-04T02:02:28.816Z,20.82
2019-04-04T02:04:37.513Z,21.23
2019-04-04T02:06:45.281Z,21.15
2019-04-04T02:08:53.038Z,20.70
2019-04-04T02:11:00.726Z,20.97
2019-04-04T02:13:09.959Z,19.73
2019-04-04T02:15:17.900Z,20.15
2019-04-04T02:17:26.763Z,22.22
2019-04-04T02:19:34.435Z,21.77
2019-04-04T02:21:42.139Z,21.97
2019-04-04T02:23:49.905Z,22.65
2019-04-04T02:25:57.654Z,20.57
2019-04-04T02:28:06.947Z,21.48
2019-04-04T02:30:16.725Z,21.00
2019-04-04T02:32:26.700Z,21.57
2019-04-04T02:34:37.862Z,22.15
2019-04-04T02:36:48.876Z,21.07
2019-04-04T02:39:15.776Z,20.68
2019-04-04T02:41:23.614Z,20.45
2019-04-04T02:43:31.284Z,21.60
2019-04-04T02:45:39.142Z,21.42
2019-04-04T02:47:50.298Z,20.68
2019-04-04T02:50:00.679Z,20.72
2019-04-04T02:52:06.885Z,20.85
2019-04-04T02:54:15.778Z,20.50
2019-04-04T02:56:23.611Z,20.23
2019-04-04T02:58:31.281Z,20.15
2019-04-04T03:00:39.045Z,20.90
2019-04-04T03:02:46.873Z,20.43
2019-04-04T03:04:54.613Z,21.73
2019-04-04T03:07:02.475Z,20.55
2019-04-04T03:09:10.619Z,21.50
2019-04-04T03:11:21.261Z,22.25
2019-04-04T03:13:31.294Z,21.80
2019-04-04T03:15:41.246Z,21.60
2019-04-04T03:17:48.657Z,23.18
2019-04-04T03:19:56.426Z,23.00
2019-04-04T03:22:04.098Z,23.57
2019-04-04T03:24:11.790Z,23.57
2019-04-04T03:26:20.547Z,23.83
2019-04-04T03:28:31.330Z,23.15
2019-04-04T03:30:38.182Z,24.47
2019-04-04T03:32:51.695Z,23.83
2019-04-04T03:34:55.436Z,23.40
2019-04-04T03:37:06.476Z,23.67
2019-04-04T03:39:13.632Z,24.15
2019-04-04T03:41:22.272Z,22.45
2019-04-04T03:43:30.086Z,23.45
2019-04-04T03:45:37.914Z,22.22
2019-04-04T03:47:45.572Z,21.48
2019-04-04T03:49:56.348Z,21.52
2019-04-04T03:52:02.721Z,20.48
2019-04-04T03:54:15.247Z,20.12
2019-04-04T03:56:23.018Z,20.77
2019-04-04T03:58:30.744Z,20.52
2019-04-04T04:00:40.355Z,21.40
2019-04-04T04:02:50.168Z,20.75
2019-04-04T04:05:00.529Z,21.37
2019-04-04T04:07:07.775Z,20.95
2019-04-04T04:09:15.638Z,20.62
2019-04-04T04:11:24.601Z,19.82
2019-04-04T04:13:32.371Z,21.40
2019-04-04T04:15:40.056Z,20.97
2019-04-04T04:17:47.737Z,22.05
2019-04-04T04:19:55.482Z,21.75
2019-04-04T04:22:04.298Z,22.60
2019-04-04T04:24:12.106Z,22.65
2019-04-04T04:26:20.026Z,21.35
2019-04-04T04:28:27.699Z,21.97
2019-04-04T04:30:39.389Z,22.87
2019-04-04T04:32:45.033Z,22.42
2019-04-04T04:34:52.775Z,23.70
2019-04-04T04:37:00.581Z,22.90
2019-04-04T04:39:08.238Z,23.92
2019-04-04T04:41:20.064Z,23.38
2019-04-04T04:43:25.239Z,23.65
2019-04-04T04:45:33.083Z,24.60
2019-04-04T04:47:40.851Z,25.45
2019-04-04T04:49:48.738Z,24.60
2019-04-04T04:51:56.410Z,22.87
2019-04-04T04:54:04.079Z,22.77
2019-04-04T04:56:13.056Z,22.98
2019-04-04T04:58:20.731Z,21.52
2019-04-04T05:00:28.508Z,22.17
2019-04-04T05:02:36.265Z,21.73
2019-04-04T05:04:44.162Z,22.25
2019-04-04T05:06:51.898Z,21.77
2019-04-04T05:08:59.612Z,22.70
2019-04-04T05:11:07.392Z,21.87
2019-04-04T05:13:15.168Z,23.50
2019-04-04T05:15:22.872Z,22.07
2019-04-04T05:17:30.539Z,22.40
2019-04-04T05:19:39.284Z,23.25
2019-04-04T05:21:47.054Z,21.90
2019-04-04T05:23:54.730Z,72.65
2019-04-04T05:26:03.198Z,23.87
2019-04-04T05:28:11.483Z,23.30
2019-04-04T05:30:20.458Z,22.90
2019-04-04T05:32:28.343Z,23.22
2019-04-04T05:34:36.131Z,23.40
2019-04-04T05:36:44.092Z,23.10
2019-04-04T05:38:54.786Z,23.02
2019-04-04T05:41:02.581Z,22.27
2019-04-04T05:43:10.257Z,23.35
2019-04-04T05:45:18.174Z,24.40
2019-04-04T05:47:26.048Z,22.75
2019-04-04T05:49:33.855Z,22.50
2019-04-04T05:51:41.670Z,22.20
2019-04-04T05:53:49.370Z,22.32
2019-04-04T05:55:57.375Z,22.48
2019-04-04T05:58:05.114Z,21.48
2019-04-04T06:00:14.307Z,21.85
2019-04-04T06:02:22.241Z,22.27
2019-04-04T06:04:29.914Z,21.27
2019-04-04T06:06:37.781Z,23.18
2019-04-04T06:08:45.481Z,23.15
2019-04-04T06:10:53.222Z,22.00
2019-04-04T06:13:00.925Z,22.87
2019-04-04T06:15:08.942Z,22.65
2019-04-04T06:17:16.747Z,22.75
2019-04-04T06:19:24.536Z,22.90
2019-04-04T06:21:33.083Z,22.87
2019-04-04T06:23:40.752Z,22.58
2019-04-04T06:25:48.514Z,23.67
2019-04-04T06:27:56.188Z,23.38
2019-04-04T06:30:04.994Z,23.98
2019-04-04T06:32:14.036Z,24.25
2019-04-04T06:34:23.973Z,23.95
2019-04-04T06:36:30.994Z,22.77
2019-04-04T06:38:38.684Z,23.90
2019-04-04T06:40:46.352Z,23.80
2019-04-04T06:42:54.033Z,23.90
2019-04-04T06:45:01.904Z,22.05
2019-04-04T06:47:10.762Z,23.70
2019-04-04T06:49:18.538Z,24.63
2019-04-04T06:51:26.374Z,23.60
2019-04-04T06:53:34.048Z,25.08
2019-04-04T06:55:41.822Z,24.52
2019-04-04T06:57:51.266Z,23.65
2019-04-04T07:00:00.366Z,24.02
2019-04-04T07:02:08.106Z,24.10
2019-04-04T07:04:17.389Z,24.27
2019-04-04T07:06:25.399Z,26.17
2019-04-04T07:08:33.136Z,23.87
2019-04-04T07:10:42.034Z,26.25
2019-04-04T07:12:49.812Z,24.55
2019-04-04T07:14:57.602Z,24.10
2019-04-04T07:17:08.288Z,24.15
2019-04-04T07:19:15.178Z,24.60
2019-04-04T07:21:23.086Z,24.65
2019-04-04T07:23:30.863Z,25.10
2019-04-04T07:25:39.875Z,24.85
2019-04-04T07:27:48.074Z,24.98
2019-04-04T07:29:56.916Z,25.10
2019-04-04T07:32:05.134Z,25.75
2019-04-04T07:34:13.738Z,24.65
2019-04-04T07:36:21.909Z,24.70
2019-04-04T07:38:30.782Z,25.17
2019-04-04T07:40:38.596Z,25.23
2019-04-04T07:42:47.926Z,24.02
2019-04-04T07:44:55.961Z,24.90
2019-04-04T07:47:04.788Z,25.27
2019-04-04T07:49:12.507Z,24.63
2019-04-04T07:51:21.271Z,22.20
2019-04-04T07:53:30.031Z,24.20
2019-04-04T07:55:37.893Z,23.32
2019-04-04T07:57:45.658Z,21.62
2019-04-04T07:59:54.482Z,20.20
2019-04-04T08:02:02.300Z,21.68
2019-04-04T08:04:09.988Z,22.15
2019-04-04T08:06:17.678Z,21.05
2019-04-04T08:08:25.503Z,21.00
2019-04-04T08:10:34.433Z,20.48
2019-04-04T08:12:42.362Z,20.32
2019-04-04T08:14:50.419Z,22.07
2019-04-04T08:16:59.484Z,20.37
2019-04-04T08:19:07.385Z,19.73
2019-04-04T08:21:15.263Z,20.45
2019-04-04T08:23:24.027Z,20.40
2019-04-04T08:25:31.821Z,20.45
2019-04-04T08:27:39.668Z,21.95
2019-04-04T08:29:47.360Z,22.02
2019-04-04T08:31:55.083Z,22.85
2019-04-04T08:34:02.917Z,23.12
2019-04-04T08:36:10.616Z,23.52
2019-04-04T08:38:18.309Z,22.10
2019-04-04T08:40:26.195Z,21.00
2019-04-04T08:42:33.982Z,20.37
2019-04-04T08:44:42.067Z,20.70
2019-04-04T08:46:50.951Z,19.80
2019-04-04T08:48:58.714Z,19.75
2019-04-04T08:51:06.649Z,21.70
2019-04-04T08:53:14.370Z,23.42
2019-04-04T08:55:22.189Z,23.12
2019-04-04T08:57:29.878Z,19.73
2019-04-04T08:59:37.785Z,19.73
2019-04-04T09:01:46.706Z,19.87
2019-04-04T09:03:54.390Z,21.33
2019-04-04T09:06:02.211Z,21.70
2019-04-04T09:08:10.090Z,21.42
2019-04-04T09:10:18.088Z,19.70
2019-04-04T09:12:25.724Z,20.68
2019-04-04T09:14:33.485Z,20.30
2019-04-04T09:16:41.339Z,20.70
2019-04-04T09:18:49.142Z,25.02
2019-04-04T09:20:56.834Z,20.82
2019-04-04T09:23:04.593Z,23.92
2019-04-04T09:25:13.747Z,21.97
2019-04-04T09:27:21.610Z,20.50
2019-04-04T09:29:29.403Z,27.27
2019-04-04T09:31:37.219Z,25.10
2019-04-04T09:33:44.813Z,27.07
2019-04-04T09:35:52.602Z,28.15
2019-04-04T09:38:01.400Z,22.93
2019-04-04T09:40:09.995Z,25.15
2019-04-04T09:42:17.760Z,29.23
2019-04-04T09:44:25.479Z,29.10
2019-04-04T09:46:33.266Z,20.70
2019-04-04T09:48:41.048Z,22.50
2019-04-04T09:50:48.763Z,23.32
2019-04-04T09:52:56.520Z,20.92
2019-04-04T09:55:05.958Z,19.45
2019-04-04T09:57:14.939Z,21.42
2019-04-04T09:59:22.623Z,25.35
2019-04-04T10:01:30.309Z,20.32
2019-04-04T10:03:38.124Z,24.15
2019-04-04T10:05:46.017Z,20.10
2019-04-04T10:07:53.806Z,22.20
2019-04-04T10:10:03.152Z,19.57
2019-04-04T10:12:10.805Z,20.35
2019-04-04T10:14:18.497Z,20.32
2019-04-04T10:16:26.382Z,18.92
2019-04-04T10:18:34.071Z,19.27
2019-04-04T10:20:41.765Z,18.30
2019-04-04T10:22:49.492Z,19.98
2019-04-04T10:24:57.179Z,18.40
2019-04-04T10:27:05.331Z,18.30
2019-04-04T10:29:13.218Z,17.70
2019-04-04T10:31:21.004Z,17.57
2019-04-04T10:33:28.794Z,18.12
2019-04-04T10:35:36.536Z,17.12
2019-04-04T10:37:44.522Z,17.77
2019-04-04T10:39:52.381Z,17.90
2019-04-04T10:42:00.109Z,17.55
2019-04-04T10:44:07.870Z,18.50
2019-04-04T10:46:15.757Z,19.73
2019-04-04T10:48:23.486Z,19.65
2019-04-04T10:50:31.354Z,17.92
2019-04-04T10:52:40.775Z,16.67
2019-04-04T10:54:48.508Z,17.92
2019-04-04T10:56:56.195Z,19.02
2019-04-04T10:59:03.893Z,18.60
2019-04-04T11:01:11.612Z,16.57
2019-04-04T11:03:19.299Z,16.82
2019-04-04T11:05:27.222Z,16.17
2019-04-04T11:07:35.777Z,15.53
2019-04-04T11:09:43.610Z,15.53
2019-04-04T11:11:51.295Z,17.17
2019-04-04T11:13:59.115Z,16.52
2019-04-04T11:16:06.959Z,15.75
2019-04-04T11:18:14.784Z,15.90
2019-04-04T11:20:22.465Z,16.25
2019-04-04T11:22:30.627Z,18.12
2019-04-04T11:24:38.411Z,14.40
2019-04-04T11:26:46.239Z,15.63
2019-04-04T11:28:54.202Z,14.40
2019-04-04T11:31:01.874Z,13.30
2019-04-04T11:33:09.588Z,15.13
2019-04-04T11:35:17.347Z,15.35
2019-04-04T11:37:25.106Z,14.75
2019-04-04T11:39:33.005Z,14.47
2019-04-04T11:41:40.690Z,13.78
2019-04-04T11:43:48.491Z,15.30
2019-04-04T11:45:56.301Z,14.63
2019-04-04T11:48:03.991Z,14.15
2019-04-04T11:50:12.227Z,15.30
2019-04-04T11:52:21.221Z,15.65
2019-04-04T11:54:28.912Z,14.65
2019-04-04T11:56:36.611Z,14.15
2019-04-04T11:58:44.739Z,14.85
2019-04-04T12:00:57.062Z,15.00
2019-04-04T12:03:04.826Z,15.48
2019-04-04T12:05:12.782Z,14.75
2019-04-04T12:07:20.585Z,18.45
2019-04-04T12:09:29.443Z,19.50
2019-04-04T12:11:37.628Z,17.15
2019-04-04T12:13:45.488Z,16.67
2019-04-04T12:15:53.178Z,18.92
2019-04-04T12:18:01.021Z,20.00
2019-04-04T12:20:09.619Z,15.70
2019-04-04T12:22:17.471Z,16.17
2019-04-04T12:24:25.217Z,17.80
2019-04-04T12:26:33.002Z,21.05
2019-04-04T12:28:40.702Z,20.40
2019-04-04T12:30:49.608Z,25.50
2019-04-04T12:32:57.304Z,19.77
2019-04-04T12:35:06.102Z,17.42
2019-04-04T12:37:13.887Z,18.23
2019-04-04T12:39:21.579Z,16.73
2019-04-04T12:41:29.279Z,17.62
2019-04-04T12:43:36.984Z,17.70
2019-04-04T12:45:45.009Z,18.32
2019-04-04T12:47:52.926Z,17.15
2019-04-04T12:50:00.745Z,19.65
2019-04-04T12:52:08.741Z,20.10
2019-04-04T12:54:17.602Z,15.93
2019-04-04T12:56:26.495Z,19.10
2019-04-04T12:58:34.282Z,17.10
2019-04-04T13:00:41.978Z,15.75
2019-04-04T13:02:50.879Z,19.80
2019-04-04T13:04:59.754Z,21.10
2019-04-04T13:07:07.582Z,22.27
2019-04-04T13:09:15.318Z,16.97
2019-04-04T13:11:24.205Z,17.85
2019-04-04T13:13:31.994Z,16.65
2019-04-04T13:15:39.732Z,42.35
2019-04-04T13:17:47.447Z,32.88
2019-04-04T13:19:55.176Z,22.42
2019-04-04T13:22:03.121Z,16.32
2019-04-04T13:24:10.905Z,19.07
2019-04-04T13:26:18.743Z,17.87
2019-04-04T13:28:26.639Z,19.73
2019-04-04T13:30:36.591Z,17.23
2019-04-04T13:32:44.617Z,17.05
2019-04-04T13:34:59.091Z,21.70
2019-04-04T13:37:01.794Z,19.35
2019-04-04T13:39:11.195Z,19.10
2019-04-04T13:41:22.252Z,18.60
2019-04-04T13:43:29.380Z,18.95
2019-04-04T13:45:37.046Z,17.00
2019-04-04T13:47:44.956Z,17.27
2019-04-04T13:49:52.647Z,16.60
2019-04-04T13:52:00.493Z,18.65
2019-04-04T13:54:08.351Z,17.25
2019-04-04T13:56:16.156Z,16.27
2019-04-04T13:58:23.950Z,17.50
2019-04-04T14:00:31.851Z,17.10
2019-04-04T14:02:40.007Z,16.15
2019-04-04T14:04:47.865Z,26.85
2019-04-04T14:06:55.576Z,18.10
2019-04-04T14:09:03.269Z,17.07
2019-04-04T14:11:12.221Z,15.63
2019-04-04T14:13:19.941Z,18.37
2019-04-04T14:15:27.725Z,18.02
2019-04-04T14:17:35.484Z,16.25
2019-04-04T14:19:43.369Z,26.80
2019-04-04T14:21:51.118Z,35.55
2019-04-04T14:24:12.068Z,20.48
2019-04-04T14:26:08.265Z,23.32
2019-04-04T14:28:15.934Z,26.60
2019-04-04T14:30:24.158Z,17.60
2019-04-04T14:32:31.979Z,17.80
2019-04-04T14:34:39.770Z,18.80
2019-04-04T14:36:47.659Z,16.30
2019-04-04T14:38:55.579Z,29.98
2019-04-04T14:41:11.184Z,25.40
2019-04-04T14:43:12.779Z,27.35
2019-04-04T14:45:20.590Z,19.42
2019-04-04T14:47:28.381Z,18.07
2019-04-04T14:49:36.172Z,16.32
2019-04-04T14:51:44.069Z,41.73
2019-04-04T14:53:51.768Z,64.75
2019-04-04T14:55:59.465Z,105.75
2019-04-04T14:58:07.356Z,64.12
2019-04-04T15:00:17.041Z,132.37
2019-04-04T15:02:24.734Z,36.38
2019-04-04T15:04:32.374Z,30.85
2019-04-04T15:06:41.645Z,28.90
2019-04-04T15:08:49.399Z,51.00
2019-04-04T15:10:57.187Z,27.22
2019-04-04T15:13:04.980Z,19.07
2019-04-04T15:15:13.111Z,20.35
2019-04-04T15:17:20.949Z,29.80
2019-04-04T15:19:28.631Z,29.42
2019-04-04T15:21:36.398Z,18.98
2019-04-04T15:23:44.306Z,17.65
2019-04-04T15:25:51.997Z,22.15
2019-04-04T15:27:59.888Z,17.85
2019-04-04T15:30:09.803Z,19.20
2019-04-04T15:32:18.735Z,20.30
2019-04-04T15:34:26.446Z,17.67
2019-04-04T15:36:34.272Z,17.20
2019-04-04T15:38:42.055Z,17.50
2019-04-04T15:40:49.847Z,17.23
2019-04-04T15:42:57.668Z,17.52
2019-04-04T15:45:07.536Z,17.45
2019-04-04T15:47:16.258Z,18.45
2019-04-04T15:49:24.057Z,17.05
2019-04-04T15:51:31.748Z,18.42
2019-04-04T15:53:39.509Z,17.70
2019-04-04T15:55:47.323Z,22.32
2019-04-04T15:57:55.017Z,33.18
2019-04-04T16:00:02.974Z,21.27
2019-04-04T16:02:12.066Z,21.60
2019-04-04T16:04:20.939Z,24.87
2019-04-04T16:06:28.728Z,33.35
2019-04-04T16:08:36.562Z,23.83
2019-04-04T16:10:45.446Z,20.32
2019-04-04T16:12:53.229Z,26.07
2019-04-04T16:15:01.043Z,18.30
2019-04-04T16:17:08.998Z,19.87
2019-04-04T16:19:16.692Z,32.83
2019-04-04T16:21:24.561Z,22.17
2019-04-04T16:23:32.331Z,38.63
2019-04-04T16:25:40.118Z,22.25
2019-04-04T16:27:48.079Z,20.62
2019-04-04T16:29:55.983Z,17.70
2019-04-04T16:32:03.683Z,16.75
2019-04-04T16:34:11.762Z,16.97
2019-04-04T16:36:19.450Z,17.82
2019-04-04T16:38:27.247Z,17.37
2019-04-04T16:40:34.963Z,20.95
2019-04-04T16:42:42.659Z,23.15
2019-04-04T16:44:51.530Z,27.70
2019-04-04T16:46:59.336Z,51.68
2019-04-04T16:49:07.196Z,26.33
2019-04-04T16:51:14.971Z,81.60
2019-04-04T16:53:22.700Z,53.83
2019-04-04T16:55:31.390Z,45.17
2019-04-04T16:57:39.079Z,31.12
2019-04-04T17:02:32.970Z,22.15
2019-04-04T17:04:40.765Z,18.55
2019-04-04T17:06:48.580Z,58.20
2019-04-04T17:08:56.395Z,69.03
2019-04-04T17:11:04.402Z,38.78
2019-04-04T17:13:12.373Z,39.08
2019-04-04T17:15:20.233Z,44.15
2019-04-04T17:17:27.951Z,98.27
2019-04-04T17:19:35.635Z,84.52
2019-04-04T17:21:43.475Z,166.00
2019-04-04T17:23:51.355Z,190.43
2019-04-04T17:25:59.063Z,82.45
2019-04-04T17:28:07.178Z,287.93
2019-04-04T17:30:16.045Z,169.57
2019-04-04T17:32:24.621Z,204.07
2019-04-04T17:34:32.953Z,287.50
2019-04-04T17:36:41.403Z,225.00
2019-04-04T17:38:49.250Z,160.75
2019-04-04T17:40:57.181Z,181.60
2019-04-04T17:43:05.037Z,161.00
2019-04-04T17:45:13.747Z,186.73
2019-04-04T17:47:21.718Z,91.72
2019-04-04T17:49:29.570Z,114.70
2019-04-04T17:51:37.642Z,55.33
2019-04-04T17:53:45.694Z,61.20
2019-04-04T17:55:54.880Z,34.08
2019-04-04T17:58:04.557Z,28.07
2019-04-04T18:00:13.624Z,35.78
2019-04-04T18:02:21.933Z,82.47
2019-04-04T18:04:29.747Z,106.83
2019-04-04T18:06:37.495Z,49.63
2019-04-04T18:08:45.198Z,49.18
2019-04-04T18:10:52.870Z,45.12
2019-04-04T18:13:02.242Z,52.45
2019-04-04T18:15:10.919Z,41.63
2019-04-04T18:17:18.682Z,32.85
2019-04-04T18:19:26.574Z,32.70
2019-04-04T18:21:34.273Z,30.08
2019-04-04T18:23:43.096Z,38.20
2019-04-04T18:25:50.935Z,46.13
2019-04-04T18:27:59.225Z,52.13
2019-04-04T18:30:12.957Z,54.23
2019-04-04T18:32:20.983Z,54.58
2019-04-04T18:34:29.230Z,54.05
2019-04-04T18:36:37.066Z,50.80
2019-04-04T18:38:45.097Z,52.55
2019-04-04T18:40:52.896Z,52.20
2019-04-04T18:43:01.849Z,52.85
2019-04-04T18:45:10.753Z,55.48
2019-04-04T18:47:18.457Z,53.90
2019-04-04T18:49:26.405Z,53.65
2019-04-04T18:51:34.089Z,50.12
2019-04-04T18:53:41.955Z,50.20
2019-04-04T18:55:49.844Z,47.70
2019-04-04T18:57:57.658Z,46.25
2019-04-04T19:00:09.643Z,50.85
2019-04-04T19:02:17.550Z,50.67
2019-04-04T19:04:26.473Z,50.20
2019-04-04T19:06:34.747Z,49.50
2019-04-04T19:08:42.456Z,48.65
2019-04-04T19:10:50.199Z,47.58
2019-04-04T19:13:05.359Z,48.55
2019-04-04T19:15:09.030Z,47.45
2019-04-04T19:17:17.943Z,50.90
2019-04-04T19:19:25.814Z,52.03
2019-04-04T19:21:33.687Z,50.33
2019-04-04T19:23:49.268Z,66.20
2019-04-04T19:25:51.120Z,62.58
2019-04-04T19:27:58.989Z,56.92
2019-04-04T19:30:10.628Z,67.80
2019-04-04T19:32:18.400Z,116.30
2019-04-04T19:34:26.279Z,92.50
2019-04-04T19:36:34.005Z,48.00
2019-04-04T19:38:41.971Z,46.65
2019-04-04T19:40:49.680Z,45.92
2019-04-04T19:42:57.477Z,60.38
2019-04-04T19:45:08.561Z,51.37
2019-04-04T19:47:16.500Z,48.17
2019-04-04T19:49:24.243Z,45.78
2019-04-04T19:51:32.247Z,41.88
2019-04-04T19:53:40.116Z,51.15
2019-04-04T19:55:47.843Z,61.37
2019-04-04T19:57:55.557Z,49.38
2019-04-04T20:00:05.332Z,86.65
2019-04-04T20:02:13.298Z,58.42
2019-04-04T20:04:21.303Z,59.20
2019-04-04T20:06:29.270Z,70.47
2019-04-04T20:08:37.023Z,66.15
2019-04-04T20:10:45.130Z,69.92
2019-04-04T20:12:52.839Z,72.85
2019-04-04T20:15:00.842Z,50.45
2019-04-04T20:17:09.701Z,52.75
2019-04-04T20:19:17.404Z,69.65
2019-04-04T20:21:25.287Z,51.45
2019-04-04T20:23:33.064Z,82.95
2019-04-04T20:25:40.795Z,54.95
2019-04-04T20:27:54.463Z,41.80
2019-04-04T20:29:58.059Z,43.15
2019-04-04T20:32:06.900Z,42.70
2019-04-04T20:34:14.619Z,49.38
2019-04-04T20:36:22.615Z,41.02
2019-04-04T20:38:30.318Z,45.58
2019-04-04T20:40:38.188Z,51.92
2019-04-04T20:42:45.959Z,42.08
2019-04-04T20:44:53.785Z,52.05
2019-04-04T20:47:01.694Z,43.05
2019-04-04T20:49:09.551Z,41.63
2019-04-04T20:51:17.364Z,42.67
2019-04-04T20:53:26.650Z,40.80
2019-04-04T20:55:34.389Z,41.37
2019-04-04T20:57:42.070Z,44.33
2019-04-04T20:59:49.909Z,44.55
2019-04-04T21:01:57.666Z,43.83
2019-04-04T21:04:05.624Z,43.08
2019-04-04T21:06:13.547Z,42.73
2019-04-04T21:08:21.555Z,41.35
2019-04-04T21:10:29.342Z,42.58
2019-04-04T21:12:37.128Z,41.90
2019-04-04T21:14:44.932Z,43.28
2019-04-04T21:16:52.623Z,43.08
2019-04-04T21:19:00.429Z,42.62
2019-04-04T21:21:08.172Z,42.55
2019-04-04T21:23:15.860Z,41.13
2019-04-04T21:25:23.583Z,43.40
2019-04-04T21:27:31.264Z,43.20
2019-04-04T21:29:39.104Z,42.43
2019-04-04T21:31:46.923Z,42.73
2019-04-04T21:33:54.716Z,41.25
2019-04-04T21:36:02.510Z,41.42
2019-04-04T21:38:10.320Z,41.77
2019-04-04T21:40:18.151Z,40.65
2019-04-04T21:42:27.088Z,41.35
2019-04-04T21:44:34.894Z,40.70
2019-04-04T21:46:42.667Z,41.95
2019-04-04T21:48:51.509Z,41.28
2019-04-04T21:50:59.317Z,42.93
2019-04-04T21:53:06.988Z,43.17
2019-04-04T21:55:14.810Z,42.60
2019-04-04T21:57:22.612Z,42.75
2019-04-04T21:59:30.460Z,43.60
2019-04-04T22:01:38.139Z,40.98
2019-04-04T22:03:45.910Z,41.25
2019-04-04T22:05:53.754Z,41.65
2019-04-04T22:08:01.595Z,40.05
2019-04-04T22:10:09.860Z,38.90
2019-04-04T22:12:17.612Z,37.63
2019-04-04T22:14:25.559Z,36.95
2019-04-04T22:16:33.263Z,37.70
2019-04-04T22:18:41.056Z,37.45
2019-04-04T22:20:48.731Z,35.78
2019-04-04T22:22:56.439Z,35.73
2019-04-04T22:25:06.123Z,36.08
2019-04-04T22:27:13.872Z,35.55
2019-04-04T22:29:21.604Z,39.20
2019-04-04T22:31:30.465Z,33.42
2019-04-04T22:33:38.160Z,33.30
2019-04-04T22:35:47.049Z,34.20
2019-04-04T22:37:54.794Z,32.55
2019-04-04T22:40:02.468Z,33.58
2019-04-04T22:42:10.181Z,31.90
2019-04-04T22:44:17.855Z,33.42
2019-04-04T22:46:25.641Z,35.80
2019-04-04T22:48:33.450Z,33.53
2019-04-04T22:50:42.376Z,33.80
2019-04-04T22:52:50.056Z,34.38
2019-04-04T22:54:57.820Z,33.63
2019-04-04T22:57:05.703Z,34.00
2019-04-04T22:59:13.450Z,32.53
2019-04-04T23:01:21.274Z,31.97
2019-04-04T23:03:29.728Z,32.23
2019-04-04T23:05:38.607Z,33.92
2019-04-04T23:07:46.231Z,31.35
2019-04-04T23:09:53.911Z,32.20
2019-04-04T23:12:01.583Z,31.27
2019-04-04T23:14:09.474Z,32.42
2019-04-04T23:16:17.143Z,30.65
2019-04-04T23:18:24.929Z,31.42
2019-04-04T23:20:32.724Z,31.85
2019-04-04T23:22:52.278Z,29.07
2019-04-04T23:24:49.773Z,29.75
2019-04-04T23:26:57.602Z,29.77
2019-04-04T23:29:05.372Z,29.57
2019-04-04T23:31:13.142Z,29.92
2019-04-04T23:33:20.944Z,28.80
2019-04-04T23:35:28.720Z,28.55
2019-04-04T23:37:36.681Z,29.12
2019-04-04T23:39:44.554Z,28.95
2019-04-04T23:41:52.345Z,28.92
2019-04-04T23:44:01.210Z,27.37
2019-04-04T23:46:08.916Z,28.25
2019-04-04T23:48:17.947Z,29.07
2019-04-04T23:50:25.619Z,29.55
2019-04-04T23:52:33.441Z,29.42
2019-04-04T23:54:41.114Z,28.57
2019-04-04T23:56:48.796Z,29.98
2019-04-04T23:58:56.660Z,29.52
